createdAt,value
2019-02-25T00:01:41.650Z,9.10
2019-02-25T00:04:10.847Z,9.00
2019-02-25T00:06:40.393Z,8.90
2019-02-25T00:09:10.360Z,8.90
2019-02-25T00:11:39.635Z,8.70
2019-02-25T00:14:09.126Z,8.60
2019-02-25T00:16:38.512Z,8.50
2019-02-25T00:19:08.101Z,8.40
2019-02-25T00:21:37.284Z,8.30
2019-02-25T00:24:06.582Z,8.30
2019-02-25T00:26:36.148Z,8.20
2019-02-25T00:29:05.393Z,8.10
2019-02-25T00:31:34.637Z,8.00
2019-02-25T00:34:03.969Z,8.00
2019-02-25T00:36:34.184Z,7.90
2019-02-25T00:39:03.937Z,7.90
2019-02-25T00:41:33.272Z,7.80
2019-02-25T00:44:02.559Z,7.70
2019-02-25T00:46:31.867Z,7.60
2019-02-25T00:49:01.565Z,7.60
2019-02-25T00:51:31.330Z,7.60
2019-02-25T00:54:00.713Z,7.60
2019-02-25T00:56:30.264Z,7.50
2019-02-25T00:58:59.829Z,7.60
2019-02-25T01:01:29.079Z,7.60
2019-02-25T01:03:58.420Z,7.60
2019-02-25T01:06:27.658Z,7.60
2019-02-25T01:08:56.954Z,7.60
2019-02-25T01:11:26.290Z,7.60
2019-02-25T01:13:56.255Z,7.60
2019-02-25T01:16:26.000Z,7.60
2019-02-25T01:18:55.279Z,7.60
2019-02-25T01:21:24.560Z,7.50
2019-02-25T01:23:54.074Z,7.50
2019-02-25T01:26:23.584Z,7.50
2019-02-25T01:28:52.855Z,7.40
2019-02-25T01:31:22.593Z,7.20
2019-02-25T01:33:52.089Z,7.20
2019-02-25T01:36:21.346Z,7.20
2019-02-25T01:38:51.418Z,7.20
2019-02-25T01:41:20.945Z,7.20
2019-02-25T01:43:50.208Z,7.20
2019-02-25T01:46:19.729Z,7.10
2019-02-25T01:48:48.996Z,7.10
2019-02-25T01:51:18.203Z,7.10
2019-02-25T01:53:47.509Z,7.10
2019-02-25T01:56:16.834Z,7.10
2019-02-25T01:58:46.105Z,7.10
2019-02-25T02:01:15.686Z,7.10
2019-02-25T02:03:44.871Z,7.10
2019-02-25T02:06:14.458Z,7.00
2019-02-25T02:08:43.795Z,6.90
2019-02-25T02:11:13.143Z,6.90
2019-02-25T02:13:42.486Z,6.90
2019-02-25T02:16:11.796Z,7.00
2019-02-25T02:18:41.070Z,7.00
2019-02-25T02:21:11.403Z,7.00
2019-02-25T02:23:40.721Z,7.10
2019-02-25T02:26:10.386Z,7.10
2019-02-25T02:28:39.657Z,7.10
2019-02-25T02:31:09.044Z,7.10
2019-02-25T02:33:38.690Z,7.10
2019-02-25T02:36:11.347Z,7.10
2019-02-25T02:38:39.195Z,7.20
2019-02-25T02:41:08.595Z,7.20
2019-02-25T02:43:37.951Z,7.20
2019-02-25T02:46:30.745Z,7.30
2019-02-25T02:49:03.500Z,7.30
2019-02-25T02:51:33.296Z,7.40
2019-02-25T02:54:03.244Z,7.40
2019-02-25T02:56:32.605Z,7.40
2019-02-25T02:59:01.954Z,7.50
2019-02-25T03:01:31.595Z,7.40
2019-02-25T03:04:01.330Z,7.40
2019-02-25T03:06:30.884Z,7.50
2019-02-25T03:09:00.603Z,7.50
2019-02-25T03:11:30.607Z,7.50
2019-02-25T03:14:00.313Z,7.50
2019-02-25T03:16:29.551Z,7.50
2019-02-25T03:18:58.832Z,7.50
2019-02-25T03:21:28.007Z,7.50
2019-02-25T03:23:57.479Z,7.50
2019-02-25T03:26:27.148Z,7.50
2019-02-25T03:28:57.852Z,7.50
2019-02-25T03:31:27.183Z,7.40
2019-02-25T03:33:57.006Z,7.40
2019-02-25T03:36:26.630Z,7.20
2019-02-25T03:38:56.010Z,7.10
2019-02-25T03:41:25.290Z,7.00
2019-02-25T03:43:54.631Z,7.00
2019-02-25T03:46:24.128Z,7.10
2019-02-25T03:48:53.839Z,7.00
2019-02-25T03:51:23.170Z,7.00
2019-02-25T03:53:52.838Z,7.00
2019-02-25T03:56:22.514Z,7.00
2019-02-25T03:58:51.702Z,7.00
2019-02-25T04:01:20.936Z,7.00
2019-02-25T04:03:50.276Z,7.00
2019-02-25T04:06:19.632Z,7.00
2019-02-25T04:08:48.885Z,7.00
2019-02-25T04:11:18.222Z,7.00
2019-02-25T04:13:47.559Z,7.00
2019-02-25T04:16:16.938Z,7.00
2019-02-25T04:18:46.674Z,6.90
2019-02-25T04:21:16.280Z,6.90
2019-02-25T04:23:46.474Z,6.90
2019-02-25T04:26:16.028Z,6.90
2019-02-25T04:28:45.322Z,6.90
2019-02-25T04:31:14.883Z,6.90
2019-02-25T04:33:44.349Z,6.80
2019-02-25T04:36:13.629Z,6.80
2019-02-25T04:38:43.002Z,6.80
2019-02-25T04:41:12.349Z,6.80
2019-02-25T04:43:41.608Z,6.80
2019-02-25T04:46:10.912Z,6.80
2019-02-25T04:48:40.190Z,6.70
2019-02-25T04:51:09.472Z,6.70
2019-02-25T04:53:38.853Z,6.70
2019-02-25T04:56:08.569Z,6.70
2019-02-25T04:58:38.273Z,6.70
2019-02-25T05:01:07.653Z,6.70
2019-02-25T05:03:37.053Z,6.70
2019-02-25T05:06:06.581Z,6.70
2019-02-25T05:08:35.884Z,6.70
2019-02-25T05:11:05.564Z,6.70
2019-02-25T05:13:34.906Z,6.70
2019-02-25T05:16:04.287Z,6.70
2019-02-25T05:18:33.630Z,6.70
2019-02-25T05:21:04.420Z,6.70
2019-02-25T05:23:33.732Z,6.70
2019-02-25T05:26:03.639Z,6.70
2019-02-25T05:28:32.991Z,6.70
2019-02-25T05:31:07.998Z,6.70
2019-02-25T05:33:37.280Z,6.60
2019-02-25T05:36:06.550Z,6.60
2019-02-25T05:38:35.837Z,6.60
2019-02-25T05:41:05.504Z,6.50
2019-02-25T05:43:36.641Z,6.50
2019-02-25T05:46:06.425Z,6.50
2019-02-25T05:48:35.704Z,6.50
2019-02-25T05:51:05.323Z,6.40
2019-02-25T05:53:35.074Z,6.40
2019-02-25T05:56:04.450Z,6.30
2019-02-25T05:58:34.411Z,6.30
2019-02-25T06:01:03.685Z,6.30
2019-02-25T06:03:33.326Z,6.20
2019-02-25T06:06:02.853Z,6.20
2019-02-25T06:08:35.025Z,6.20
2019-02-25T06:11:04.335Z,6.20
2019-02-25T06:13:33.963Z,6.20
2019-02-25T06:16:04.605Z,6.20
2019-02-25T06:18:33.965Z,6.20
2019-02-25T06:21:03.568Z,6.10
2019-02-25T06:23:32.879Z,6.20
2019-02-25T06:26:02.359Z,6.10
2019-02-25T06:28:31.793Z,6.10
2019-02-25T06:31:01.481Z,6.20
2019-02-25T06:33:30.900Z,6.10
2019-02-25T06:36:00.595Z,6.10
2019-02-25T06:38:29.899Z,6.00
2019-02-25T06:40:59.190Z,5.90
2019-02-25T06:43:28.759Z,5.80
2019-02-25T06:45:58.416Z,5.80
2019-02-25T06:48:27.733Z,5.80
2019-02-25T06:50:57.840Z,5.70
2019-02-25T06:53:27.212Z,5.60
2019-02-25T06:55:56.513Z,5.60
2019-02-25T06:58:26.264Z,5.50
2019-02-25T07:00:56.022Z,5.50
2019-02-25T07:03:25.374Z,5.50
2019-02-25T07:06:01.467Z,5.40
2019-02-25T07:08:49.765Z,5.40
2019-02-25T07:11:27.201Z,5.40
2019-02-25T07:14:05.703Z,5.40
2019-02-25T07:17:03.187Z,5.40
2019-02-25T07:19:50.241Z,5.40
2019-02-25T07:22:45.167Z,5.40
2019-02-25T07:25:28.518Z,5.40
2019-02-25T07:28:23.420Z,5.40
2019-02-25T07:31:10.750Z,5.40
2019-02-25T07:34:02.387Z,5.40
2019-02-25T07:36:59.820Z,5.50
2019-02-25T07:40:00.092Z,5.50
2019-02-25T07:42:53.412Z,5.60
2019-02-25T07:45:44.567Z,5.60
2019-02-25T07:48:34.068Z,5.70
2019-02-25T07:51:22.395Z,5.80
2019-02-25T07:53:57.364Z,6.00
2019-02-25T07:56:54.854Z,6.10
2019-02-25T07:59:39.352Z,6.10
2019-02-25T08:02:30.926Z,6.10
2019-02-25T08:05:07.585Z,6.20
2019-02-25T08:07:56.970Z,6.20
2019-02-25T08:10:32.442Z,6.30
2019-02-25T08:13:08.059Z,6.40
2019-02-25T08:16:08.270Z,6.40
2019-02-25T08:18:51.198Z,6.50
2019-02-25T08:21:35.859Z,6.50
2019-02-25T08:24:12.509Z,6.60
2019-02-25T08:26:56.948Z,6.70
2019-02-25T08:29:35.119Z,6.70
2019-02-25T08:32:17.251Z,6.80
2019-02-25T08:35:04.445Z,6.90
2019-02-25T08:38:11.389Z,7.00
2019-02-25T08:41:20.300Z,7.10
2019-02-25T08:44:14.970Z,7.20
2019-02-25T08:46:55.196Z,7.30
2019-02-25T08:49:34.136Z,7.40
2019-02-25T08:52:03.504Z,7.50
2019-02-25T08:54:33.160Z,7.70
2019-02-25T08:57:02.731Z,7.80
2019-02-25T08:59:32.081Z,7.90
2019-02-25T09:02:01.348Z,8.00
2019-02-25T09:04:30.699Z,8.10
2019-02-25T09:07:00.277Z,8.20
2019-02-25T09:09:29.640Z,8.40
2019-02-25T09:11:59.007Z,8.40
2019-02-25T09:14:28.257Z,8.40
2019-02-25T09:16:58.189Z,8.30
2019-02-25T09:19:30.586Z,8.30
2019-02-25T09:22:00.201Z,8.40
2019-02-25T09:24:29.865Z,8.40
2019-02-25T09:26:59.493Z,8.40
2019-02-25T09:29:29.279Z,8.50
2019-02-25T09:31:58.704Z,8.60
2019-02-25T09:34:28.109Z,8.80
2019-02-25T09:36:57.449Z,9.00
2019-02-25T09:39:27.141Z,9.20
2019-02-25T09:41:56.441Z,9.40
2019-02-25T09:44:26.135Z,9.50
2019-02-25T09:46:56.142Z,9.60
2019-02-25T09:49:25.424Z,9.80
2019-02-25T09:51:54.721Z,9.90
2019-02-25T09:54:24.398Z,10.00
2019-02-25T09:56:55.061Z,10.10
2019-02-25T09:59:24.398Z,10.10
2019-02-25T10:01:53.774Z,10.10
2019-02-25T10:04:23.160Z,10.20
2019-02-25T10:06:52.459Z,10.40
2019-02-25T10:09:29.650Z,10.60
2019-02-25T10:11:54.671Z,10.80
2019-02-25T10:14:24.337Z,10.90
2019-02-25T10:16:54.063Z,11.00
2019-02-25T10:19:23.355Z,11.00
2019-02-25T10:21:52.780Z,11.10
2019-02-25T10:24:22.440Z,11.20
2019-02-25T10:26:52.097Z,11.30
2019-02-25T10:29:21.507Z,11.40
2019-02-25T10:31:51.238Z,11.50
2019-02-25T10:34:20.851Z,11.60
2019-02-25T10:36:52.204Z,11.70
2019-02-25T10:39:21.350Z,11.90
2019-02-25T10:41:51.237Z,12.10
2019-02-25T10:44:21.848Z,12.20
2019-02-25T10:46:51.181Z,12.30
2019-02-25T10:49:22.232Z,12.40
2019-02-25T10:51:52.227Z,12.50
2019-02-25T10:54:23.300Z,12.70
2019-02-25T10:57:04.386Z,12.80
2019-02-25T10:59:35.042Z,12.90
2019-02-25T11:02:05.648Z,13.10
2019-02-25T11:04:35.106Z,13.30
2019-02-25T11:07:05.655Z,13.40
2019-02-25T11:10:11.918Z,13.40
2019-02-25T11:12:42.888Z,13.50
2019-02-25T11:15:16.026Z,13.70
2019-02-25T11:17:47.426Z,13.80
2019-02-25T11:20:16.645Z,13.80
2019-02-25T11:22:46.714Z,14.00
2019-02-25T11:25:19.272Z,14.00
2019-02-25T11:27:48.738Z,14.10
2019-02-25T11:30:19.337Z,14.20
2019-02-25T11:32:51.035Z,14.30
2019-02-25T11:35:20.141Z,14.40
2019-02-25T11:37:50.093Z,14.60
2019-02-25T11:40:20.736Z,14.60
2019-02-25T11:42:50.310Z,14.70
2019-02-25T11:45:19.714Z,14.90
2019-02-25T11:47:49.044Z,15.10
2019-02-25T11:50:18.434Z,15.00
2019-02-25T11:52:48.045Z,15.20
2019-02-25T11:55:21.826Z,15.30
2019-02-25T11:57:51.182Z,15.40
2019-02-25T12:00:21.566Z,15.30
2019-02-25T12:02:51.888Z,15.30
2019-02-25T12:05:21.238Z,15.40
2019-02-25T12:07:50.859Z,15.40
2019-02-25T12:10:20.199Z,15.70
2019-02-25T12:12:50.033Z,15.80
2019-02-25T12:15:19.827Z,15.90
2019-02-25T12:17:49.726Z,15.90
2019-02-25T12:20:19.321Z,16.20
2019-02-25T12:22:48.669Z,16.40
2019-02-25T12:25:18.297Z,16.50
2019-02-25T12:27:48.024Z,16.50
2019-02-25T12:30:18.972Z,16.50
2019-02-25T12:32:48.250Z,16.50
2019-02-25T12:35:17.663Z,16.60
2019-02-25T12:37:49.069Z,16.70
2019-02-25T12:40:19.231Z,16.80
2019-02-25T12:42:48.641Z,16.90
2019-02-25T12:45:18.122Z,16.80
2019-02-25T12:47:47.482Z,16.90
2019-02-25T12:50:17.192Z,17.00
2019-02-25T12:52:46.548Z,17.20
2019-02-25T12:55:16.071Z,17.50
2019-02-25T12:57:45.449Z,17.70
2019-02-25T13:00:15.083Z,17.70
2019-02-25T13:02:44.438Z,17.60
2019-02-25T13:05:14.979Z,17.60
2019-02-25T13:07:44.399Z,17.50
2019-02-25T13:10:14.180Z,17.60
2019-02-25T13:12:43.609Z,17.60
2019-02-25T13:15:14.265Z,17.60
2019-02-25T13:17:43.787Z,17.60
2019-02-25T13:20:13.291Z,17.70
2019-02-25T13:22:42.674Z,18.00
2019-02-25T13:25:13.295Z,18.30
2019-02-25T13:27:42.689Z,18.40
2019-02-25T13:30:13.993Z,18.50
2019-02-25T13:32:44.008Z,18.70
2019-02-25T13:35:16.660Z,18.80
2019-02-25T13:37:47.492Z,18.90
2019-02-25T13:40:17.293Z,19.10
2019-02-25T13:42:46.942Z,19.30
2019-02-25T13:45:16.471Z,19.40
2019-02-25T13:47:45.855Z,19.50
2019-02-25T13:50:15.559Z,19.70
2019-02-25T13:52:48.177Z,19.80
2019-02-25T13:55:16.367Z,19.90
2019-02-25T13:57:45.964Z,19.90
2019-02-25T14:00:19.389Z,19.80
2019-02-25T14:02:48.932Z,19.70
2019-02-25T14:05:19.938Z,19.60
2019-02-25T14:07:49.593Z,19.60
2019-02-25T14:10:19.140Z,19.40
2019-02-25T14:12:49.025Z,19.40
2019-02-25T14:15:18.965Z,19.40
2019-02-25T14:17:48.257Z,19.50
2019-02-25T14:20:18.795Z,19.40
2019-02-25T14:22:48.487Z,19.30
2019-02-25T14:25:19.991Z,19.40
2019-02-25T14:27:49.255Z,19.30
2019-02-25T14:30:20.943Z,19.30
2019-02-25T14:32:53.018Z,19.00
2019-02-25T14:35:22.201Z,19.00
2019-02-25T14:37:52.298Z,18.90
2019-02-25T14:40:23.887Z,18.90
2019-02-25T14:42:54.731Z,18.90
2019-02-25T14:45:26.501Z,18.80
2019-02-25T14:47:59.612Z,18.80
2019-02-25T14:50:27.671Z,18.80
2019-02-25T14:52:57.109Z,18.70
2019-02-25T14:55:27.052Z,18.70
2019-02-25T14:57:59.917Z,18.60
2019-02-25T15:00:29.149Z,18.50
2019-02-25T15:02:59.644Z,18.40
2019-02-25T15:05:29.106Z,18.30
2019-02-25T15:07:58.674Z,18.20
2019-02-25T15:10:31.732Z,18.00
2019-02-25T15:13:03.830Z,17.80
2019-02-25T15:15:37.052Z,17.80
2019-02-25T15:18:06.908Z,17.70
2019-02-25T15:20:36.361Z,17.60
2019-02-25T15:23:07.399Z,17.60
2019-02-25T15:25:40.342Z,17.50
2019-02-25T15:28:11.356Z,17.40
2019-02-25T15:30:39.393Z,17.20
2019-02-25T15:33:11.642Z,17.40
2019-02-25T15:35:41.757Z,17.30
2019-02-25T15:38:12.110Z,17.20
2019-02-25T15:40:41.552Z,17.30
2019-02-25T15:43:15.173Z,17.20
2019-02-25T15:45:43.328Z,17.10
2019-02-25T15:48:15.022Z,17.10
2019-02-25T15:50:48.078Z,17.10
2019-02-25T15:53:16.196Z,17.00
2019-02-25T15:55:45.712Z,17.20
2019-02-25T15:58:15.692Z,17.20
2019-02-25T16:00:45.610Z,17.20
2019-02-25T16:03:16.327Z,17.20
2019-02-25T16:05:52.275Z,17.10
2019-02-25T16:08:30.740Z,17.00
2019-02-25T16:11:00.173Z,17.00
2019-02-25T16:13:30.061Z,16.90
2019-02-25T16:15:59.588Z,16.90
2019-02-25T16:18:28.913Z,16.90
2019-02-25T16:20:59.736Z,16.80
2019-02-25T16:23:30.199Z,16.80
2019-02-25T16:26:00.597Z,16.70
2019-02-25T16:28:31.219Z,16.70
2019-02-25T16:31:00.883Z,16.70
2019-02-25T16:33:30.827Z,16.70
2019-02-25T16:36:03.267Z,16.60
2019-02-25T16:38:34.205Z,16.50
2019-02-25T16:41:05.551Z,16.40
2019-02-25T16:43:37.797Z,16.40
2019-02-25T16:46:08.830Z,16.30
2019-02-25T16:48:38.215Z,16.20
2019-02-25T16:51:10.194Z,16.10
2019-02-25T16:53:40.982Z,16.00
2019-02-25T16:56:11.781Z,16.00
2019-02-25T16:58:41.063Z,15.90
2019-02-25T17:01:12.577Z,15.80
2019-02-25T17:03:43.836Z,15.70
2019-02-25T17:06:15.205Z,15.60
2019-02-25T17:08:47.077Z,15.50
2019-02-25T17:11:21.687Z,15.50
2019-02-25T17:13:50.729Z,15.50
2019-02-25T17:16:23.454Z,15.50
2019-02-25T17:18:51.334Z,15.40
2019-02-25T17:21:21.009Z,15.40
2019-02-25T17:23:51.573Z,15.30
2019-02-25T17:26:21.460Z,15.20
2019-02-25T17:28:50.864Z,15.10
2019-02-25T17:31:20.140Z,15.00
2019-02-25T17:33:51.346Z,14.90
2019-02-25T17:36:23.729Z,14.80
2019-02-25T17:38:53.298Z,14.80
2019-02-25T17:41:22.683Z,14.70
2019-02-25T17:43:51.982Z,14.70
2019-02-25T17:46:21.375Z,14.60
2019-02-25T17:48:50.770Z,14.50
2019-02-25T17:51:20.896Z,14.50
2019-02-25T17:53:52.621Z,14.40
2019-02-25T17:56:24.298Z,14.40
2019-02-25T17:58:53.528Z,14.30
2019-02-25T18:01:24.210Z,14.30
2019-02-25T18:03:54.009Z,14.30
2019-02-25T18:06:29.514Z,14.20
2019-02-25T18:08:55.473Z,14.10
2019-02-25T18:11:25.472Z,14.10
2019-02-25T18:13:55.634Z,14.00
2019-02-25T18:16:26.272Z,13.90
2019-02-25T18:18:57.748Z,13.90
2019-02-25T18:21:28.930Z,13.80
2019-02-25T18:23:58.049Z,13.80
2019-02-25T18:26:28.582Z,13.70
2019-02-25T18:28:59.153Z,13.70
2019-02-25T18:31:29.151Z,13.60
2019-02-25T18:33:59.262Z,13.60
2019-02-25T18:36:29.411Z,13.50
2019-02-25T18:38:59.638Z,13.50
2019-02-25T18:41:33.612Z,13.40
2019-02-25T18:44:00.170Z,13.30
2019-02-25T18:46:29.766Z,13.20
2019-02-25T18:48:59.503Z,13.10
2019-02-25T18:51:30.525Z,13.10
2019-02-25T18:54:02.065Z,13.00
2019-02-25T18:56:31.567Z,13.00
2019-02-25T18:59:08.239Z,13.10
2019-02-25T19:01:32.339Z,13.10
2019-02-25T19:04:01.734Z,13.10
2019-02-25T19:06:34.153Z,13.10
2019-02-25T19:09:06.011Z,13.10
2019-02-25T19:11:35.762Z,13.10
2019-02-25T19:14:06.368Z,13.10
2019-02-25T19:16:37.904Z,13.10
2019-02-25T19:19:08.067Z,13.00
2019-02-25T19:21:38.763Z,13.00
2019-02-25T19:24:09.533Z,12.90
2019-02-25T19:26:40.854Z,12.80
2019-02-25T19:29:12.513Z,12.80
2019-02-25T19:31:42.573Z,12.80
2019-02-25T19:34:15.504Z,12.70
2019-02-25T19:36:44.444Z,12.70
2019-02-25T19:39:16.450Z,12.60
2019-02-25T19:41:47.161Z,12.60
2019-02-25T19:44:16.731Z,12.60
2019-02-25T19:46:48.037Z,12.50
2019-02-25T19:49:18.826Z,12.50
2019-02-25T19:51:50.215Z,12.50
2019-02-25T19:54:19.261Z,12.50
2019-02-25T19:56:51.487Z,12.50
2019-02-25T19:59:22.253Z,12.50
2019-02-25T20:01:52.685Z,12.40
2019-02-25T20:04:22.098Z,12.40
2019-02-25T20:06:53.373Z,12.30
2019-02-25T20:09:22.769Z,12.30
2019-02-25T20:11:52.134Z,12.20
2019-02-25T20:14:21.551Z,12.20
2019-02-25T20:16:51.202Z,12.20
2019-02-25T20:19:20.601Z,12.10
2019-02-25T20:21:52.461Z,12.10
2019-02-25T20:24:23.378Z,12.10
2019-02-25T20:26:57.500Z,12.10
2019-02-25T20:29:24.271Z,12.00
2019-02-25T20:31:54.447Z,12.00
2019-02-25T20:34:25.918Z,12.00
2019-02-25T20:36:57.830Z,12.00
2019-02-25T20:39:27.169Z,11.90
2019-02-25T20:41:57.081Z,11.90
2019-02-25T20:44:28.457Z,11.90
2019-02-25T20:47:00.144Z,11.80
2019-02-25T20:49:31.840Z,11.80
2019-02-25T20:52:01.318Z,11.80
2019-02-25T20:54:35.897Z,11.80
2019-02-25T20:57:04.894Z,11.80
2019-02-25T20:59:34.877Z,11.80
2019-02-25T21:02:10.089Z,11.90
2019-02-25T21:04:36.776Z,11.90
2019-02-25T21:07:08.935Z,11.90
2019-02-25T21:09:40.411Z,11.90
2019-02-25T21:12:10.998Z,11.80
2019-02-25T21:14:43.224Z,11.80
2019-02-25T21:17:12.702Z,11.70
2019-02-25T21:19:44.225Z,11.60
2019-02-25T21:22:13.686Z,11.50
2019-02-25T21:24:43.040Z,11.50
2019-02-25T21:27:12.679Z,11.50
2019-02-25T21:29:42.131Z,11.40
2019-02-25T21:32:15.083Z,11.40
2019-02-25T21:34:46.523Z,11.30
2019-02-25T21:37:13.872Z,11.30
2019-02-25T21:39:43.271Z,11.30
2019-02-25T21:42:14.751Z,11.30
2019-02-25T21:44:46.403Z,11.20
2019-02-25T21:47:15.244Z,11.20
2019-02-25T21:49:44.544Z,11.10
2019-02-25T21:52:15.411Z,11.10
2019-02-25T21:54:45.480Z,11.10
2019-02-25T21:57:14.804Z,11.00
2019-02-25T21:59:44.191Z,11.00
2019-02-25T22:02:13.818Z,11.00
2019-02-25T22:04:45.412Z,11.00
2019-02-25T22:07:20.057Z,11.00
2019-02-25T22:09:46.676Z,10.90
2019-02-25T22:12:16.051Z,10.90
2019-02-25T22:14:47.618Z,10.90
2019-02-25T22:17:19.587Z,10.90
2019-02-25T22:19:50.130Z,10.90
2019-02-25T22:22:24.092Z,10.90
2019-02-25T22:24:51.377Z,10.90
2019-02-25T22:27:22.811Z,10.80
2019-02-25T22:29:53.726Z,10.80
2019-02-25T22:32:23.683Z,10.70
2019-02-25T22:34:52.873Z,10.70
2019-02-25T22:37:24.429Z,10.60
2019-02-25T22:39:54.640Z,10.60
2019-02-25T22:42:25.316Z,10.60
2019-02-25T22:44:56.154Z,10.50
2019-02-25T22:47:25.502Z,10.50
2019-02-25T22:49:54.756Z,10.50
2019-02-25T22:52:26.276Z,10.40
2019-02-25T22:54:55.059Z,10.40
2019-02-25T22:57:25.685Z,10.40
2019-02-25T22:59:55.459Z,10.40
2019-02-25T23:02:27.331Z,10.30
2019-02-25T23:04:56.271Z,10.30
2019-02-25T23:07:25.654Z,10.30
2019-02-25T23:09:55.179Z,10.20
2019-02-25T23:12:28.420Z,10.20
2019-02-25T23:14:58.154Z,10.20
2019-02-25T23:17:31.101Z,10.10
2019-02-25T23:20:00.159Z,10.20
2019-02-25T23:22:30.166Z,10.10
2019-02-25T23:25:01.100Z,10.10
2019-02-25T23:27:32.149Z,10.10
2019-02-25T23:30:01.893Z,10.10
2019-02-25T23:32:31.189Z,10.10
2019-02-25T23:35:00.553Z,10.10
2019-02-25T23:37:30.194Z,10.00
2019-02-25T23:40:02.184Z,10.00
2019-02-25T23:42:33.012Z,10.00
2019-02-25T23:45:01.891Z,9.90
2019-02-25T23:47:33.125Z,9.90
2019-02-25T23:50:04.034Z,9.80
2019-02-25T23:52:35.360Z,9.80
2019-02-25T23:55:04.765Z,9.80
2019-02-25T23:57:35.249Z,9.80
